Cushing, IA (51018)

11:33 PM CDT on September 30, 2014 (GMT -0500)
The Danbury Review | Change Station
CLOSE
Current Station
Personal Weather Station
Location: Danbury, IA
Elevation: 1162 ft
Nearby Weather Stations

Elev 1162 ft 42.24 °N, 95.72 °W | Updated 3 minutes ago

Overcast
Overcast
61.8 °F
Feels Like 61.8 °F
N
0.0
Wind Variable Wind from East
Gusts 0.0 mph

Today
High -- | Low -- °F
--% Chance of Precip.
Yesterday
High -- | Low -- °F
Precip. -- in
7:18 AM 7:05 PM
Waxing Crescent, 43% visible
Pressure 29.80 in
Visibility 5.0 miles
Clouds Overcast 800 ft
Dew Point 60 °F
Humidity 94%
Rainfall -999.00 in
Snow Depth Not available.
UV 0 out of 12
Pollen 3.40 out of 12
Air Quality Not available.
Flu Activity Not available.
METAR KCKP 010415Z AUTO 13008G15KT 5SM BR OVC008 16/16 A2980 RMK AO2 T01610160

More Conditions Fewer Conditions

Pressure 29.80 in
Visibility 5.0 miles
Clouds Overcast 800 ft
Dew Point 60 °F
Humidity 94%
Rainfall -999.00 in
Snow Depth Not available.
UV 0 out of 12
Pollen 3.40 out of 12
Air Quality Not available.
Flu Activity Not available.
METAR KCKP 010415Z AUTO 13008G15KT 5SM BR OVC008 16/16 A2980 RMK AO2 T01610160

More Conditions Fewer Conditions

10-Day Weather Forecast

Almanac

Astronomy

Sep. 30, 2014 Rise Set
Actual Time 7:18 AM CDT 7:05 PM CDT
Civil Twilight 6:50 AM CDT 7:33 PM CDT
Nautical Twilight 6:18 AM CDT 8:06 PM CDT
Astronomical Twilight 5:44 AM CDT 8:39 PM CDT
Moon 1:33 PM CDT (9/30) 11:31 PM CDT (9/30)
Length of Visible Light 12h 43m
Length of Day
11h 47m
Tomorrow will be 2m 51s shorter.
Waxing Crescent, 43% of the Moon is Illuminated
Oct 1
Waxing Crescent
Oct 1
First Quarter
Oct 8
Full
Oct 15
Last Quarter
Oct 23
New

Yesterday's Extremes

State Highs State Lows

Community

WunderPhotos

Upload Photos

1,757,845 photos uploaded!

Nearby

Snow Depth

Station Depth Elevation
No new snow has been reported.

Earthquake Activity

City Distance Mag. Time & Date
No recent earthquake activity has been reported nearby.
Minimum magnitude displayed is 2.5.

Coastal Water Temperatures

Place Temperature
No Stations Reporting

Nearby Weather Stations